sensor_id;sensor_type;location;lat;lon;timestamp;temperature;humidity
23079;DHT22;11707;50.830;4.364;2023-12-20T00:01:35;7.10;99.90
23079;DHT22;11707;50.830;4.364;2023-12-20T00:04:02;7.00;99.90
23079;DHT22;11707;50.830;4.364;2023-12-20T00:06:27;7.00;99.90
23079;DHT22;11707;50.830;4.364;2023-12-20T00:08:53;7.00;99.90
23079;DHT22;11707;50.830;4.364;2023-12-20T00:11:21;7.00;99.90
23079;DHT22;11707;50.830;4.364;2023-12-20T00:13:49;7.00;99.90
23079;DHT22;11707;50.830;4.364;2023-12-20T00:16:15;7.00;99.90
23079;DHT22;11707;50.830;4.364;2023-12-20T00:18:43;7.00;99.90
23079;DHT22;11707;50.830;4.364;2023-12-20T00:21:09;7.00;99.90
23079;DHT22;11707;50.830;4.364;2023-12-20T00:23:34;7.00;99.90
23079;DHT22;11707;50.830;4.364;2023-12-20T00:26:00;7.00;99.90
23079;DHT22;11707;50.830;4.364;2023-12-20T00:28:26;6.90;99.90
23079;DHT22;11707;50.830;4.364;2023-12-20T00:30:51;6.90;99.90
23079;DHT22;11707;50.830;4.364;2023-12-20T00:33:17;6.90;99.90
23079;DHT22;11707;50.830;4.364;2023-12-20T00:35:43;7.00;99.90
23079;DHT22;11707;50.830;4.364;2023-12-20T00:38:08;7.00;99.90
23079;DHT22;11707;50.830;4.364;2023-12-20T00:40:37;6.90;99.90
23079;DHT22;11707;50.830;4.364;2023-12-20T00:43:05;6.80;99.90
23079;DHT22;11707;50.830;4.364;2023-12-20T00:45:33;6.70;99.90
23079;DHT22;11707;50.830;4.364;2023-12-20T00:47:59;6.70;99.90
23079;DHT22;11707;50.830;4.364;2023-12-20T00:50:27;6.70;99.90
23079;DHT22;11707;50.830;4.364;2023-12-20T00:52:53;6.60;99.90
23079;DHT22;11707;50.830;4.364;2023-12-20T00:55:20;6.60;99.90
23079;DHT22;11707;50.830;4.364;2023-12-20T00:57:45;6.60;99.90
23079;DHT22;11707;50.830;4.364;2023-12-20T01:00:11;6.50;99.90
23079;DHT22;11707;50.830;4.364;2023-12-20T01:02:40;6.50;99.90
23079;DHT22;11707;50.830;4.364;2023-12-20T01:05:06;6.50;99.90
23079;DHT22;11707;50.830;4.364;2023-12-20T01:07:33;6.50;99.90
23079;DHT22;11707;50.830;4.364;2023-12-20T01:10:11;6.50;99.90
23079;DHT22;11707;50.830;4.364;2023-12-20T01:12:37;6.60;99.90
23079;DHT22;11707;50.830;4.364;2023-12-20T01:15:03;6.50;99.90
23079;DHT22;11707;50.830;4.364;2023-12-20T01:17:28;6.50;99.90
23079;DHT22;11707;50.830;4.364;2023-12-20T01:19:58;6.50;99.90
23079;DHT22;11707;50.830;4.364;2023-12-20T01:22:23;6.40;99.90
23079;DHT22;11707;50.830;4.364;2023-12-20T01:24:51;6.50;99.90
23079;DHT22;11707;50.830;4.364;2023-12-20T01:27:19;6.50;99.90
23079;DHT22;11707;50.830;4.364;2023-12-20T01:29:45;6.50;99.90
23079;DHT22;11707;50.830;4.364;2023-12-20T01:32:13;6.50;99.90
23079;DHT22;11707;50.830;4.364;2023-12-20T01:34:38;6.50;99.90
23079;DHT22;11707;50.830;4.364;2023-12-20T01:37:04;6.50;99.90
23079;DHT22;11707;50.830;4.364;2023-12-20T01:39:30;6.50;99.90
23079;DHT22;11707;50.830;4.364;2023-12-20T01:41:58;6.40;99.90
23079;DHT22;11707;50.830;4.364;2023-12-20T01:44:23;6.40;99.90
23079;DHT22;11707;50.830;4.364;2023-12-20T01:46:50;6.40;99.90
23079;DHT22;11707;50.830;4.364;2023-12-20T01:49:18;6.40;99.90
23079;DHT22;11707;50.830;4.364;2023-12-20T01:51:45;6.40;99.90
23079;DHT22;11707;50.830;4.364;2023-12-20T01:54:11;6.30;99.90
23079;DHT22;11707;50.830;4.364;2023-12-20T01:56:40;6.40;99.90
23079;DHT22;11707;50.830;4.364;2023-12-20T01:59:06;6.40;99.90
23079;DHT22;11707;50.830;4.364;2023-12-20T02:01:33;6.30;99.90
23079;DHT22;11707;50.830;4.364;2023-12-20T02:04:01;6.30;99.90
23079;DHT22;11707;50.830;4.364;2023-12-20T02:06:30;6.40;99.90
23079;DHT22;11707;50.830;4.364;2023-12-20T02:08:59;6.40;99.90
23079;DHT22;11707;50.830;4.364;2023-12-20T02:11:25;6.40;99.90
23079;DHT22;11707;50.830;4.364;2023-12-20T02:13:51;6.30;99.90
23079;DHT22;11707;50.830;4.364;2023-12-20T02:16:22;6.30;99.90
23079;DHT22;11707;50.830;4.364;2023-12-20T02:18:48;6.30;99.90
23079;DHT22;11707;50.830;4.364;2023-12-20T02:21:14;6.20;99.90
23079;DHT22;11707;50.830;4.364;2023-12-20T02:23:40;6.20;99.90
23079;DHT22;11707;50.830;4.364;2023-12-20T02:26:08;6.20;99.90
23079;DHT22;11707;50.830;4.364;2023-12-20T02:28:34;6.20;99.90
23079;DHT22;11707;50.830;4.364;2023-12-20T02:31:03;6.20;99.90
23079;DHT22;11707;50.830;4.364;2023-12-20T02:33:29;6.20;99.90
23079;DHT22;11707;50.830;4.364;2023-12-20T02:35:54;6.20;99.90
23079;DHT22;11707;50.830;4.364;2023-12-20T02:38:20;6.20;99.90
23079;DHT22;11707;50.830;4.364;2023-12-20T02:40:46;6.20;99.90
23079;DHT22;11707;50.830;4.364;2023-12-20T02:43:11;6.20;99.90
23079;DHT22;11707;50.830;4.364;2023-12-20T02:45:39;6.20;99.90
23079;DHT22;11707;50.830;4.364;2023-12-20T02:48:05;6.20;99.90
23079;DHT22;11707;50.830;4.364;2023-12-20T02:50:33;6.20;99.90
23079;DHT22;11707;50.830;4.364;2023-12-20T02:53:02;6.20;99.90
23079;DHT22;11707;50.830;4.364;2023-12-20T02:55:28;6.20;99.90
23079;DHT22;11707;50.830;4.364;2023-12-20T02:57:53;6.20;99.90
23079;DHT22;11707;50.830;4.364;2023-12-20T03:00:19;6.20;99.90
23079;DHT22;11707;50.830;4.364;2023-12-20T03:02:45;6.20;99.90
23079;DHT22;11707;50.830;4.364;2023-12-20T03:05:10;6.20;99.90
23079;DHT22;11707;50.830;4.364;2023-12-20T03:07:37;6.20;99.90
23079;DHT22;11707;50.830;4.364;2023-12-20T03:10:04;6.20;99.90
23079;DHT22;11707;50.830;4.364;2023-12-20T03:12:31;6.30;99.90
23079;DHT22;11707;50.830;4.364;2023-12-20T03:14:57;6.30;99.90
23079;DHT22;11707;50.830;4.364;2023-12-20T03:17:23;6.30;99.90
23079;DHT22;11707;50.830;4.364;2023-12-20T03:19:48;6.50;99.90
23079;DHT22;11707;50.830;4.364;2023-12-20T03:22:14;6.40;99.90
23079;DHT22;11707;50.830;4.364;2023-12-20T03:24:40;6.50;99.90
23079;DHT22;11707;50.830;4.364;2023-12-20T03:27:05;6.60;99.90
23079;DHT22;11707;50.830;4.364;2023-12-20T03:29:31;6.60;99.90
23079;DHT22;11707;50.830;4.364;2023-12-20T03:31:57;6.50;99.90
23079;DHT22;11707;50.830;4.364;2023-12-20T03:34:22;6.50;99.90
23079;DHT22;11707;50.830;4.364;2023-12-20T03:36:48;6.40;99.90
23079;DHT22;11707;50.830;4.364;2023-12-20T03:39:14;6.40;99.90
23079;DHT22;11707;50.830;4.364;2023-12-20T03:41:42;6.40;99.90
23079;DHT22;11707;50.830;4.364;2023-12-20T03:44:10;6.40;99.90
23079;DHT22;11707;50.830;4.364;2023-12-20T03:46:35;6.40;99.90
23079;DHT22;11707;50.830;4.364;2023-12-20T03:49:01;6.40;99.90
23079;DHT22;11707;50.830;4.364;2023-12-20T03:51:27;6.40;99.90
23079;DHT22;11707;50.830;4.364;2023-12-20T03:53:52;6.40;99.90
23079;DHT22;11707;50.830;4.364;2023-12-20T03:56:18;6.40;99.90
23079;DHT22;11707;50.830;4.364;2023-12-20T03:58:44;6.30;99.90
23079;DHT22;11707;50.830;4.364;2023-12-20T04:01:10;6.30;99.90
23079;DHT22;11707;50.830;4.364;2023-12-20T04:03:39;6.40;99.90
23079;DHT22;11707;50.830;4.364;2023-12-20T04:06:05;6.30;99.90
23079;DHT22;11707;50.830;4.364;2023-12-20T04:08:33;6.40;99.90
23079;DHT22;11707;50.830;4.364;2023-12-20T04:10:59;6.40;99.90
23079;DHT22;11707;50.830;4.364;2023-12-20T04:13:25;6.50;99.90
23079;DHT22;11707;50.830;4.364;2023-12-20T04:15:50;6.40;99.90
23079;DHT22;11707;50.830;4.364;2023-12-20T04:18:17;6.40;99.90
23079;DHT22;11707;50.830;4.364;2023-12-20T04:20:42;6.50;99.90
23079;DHT22;11707;50.830;4.364;2023-12-20T04:23:08;6.50;99.90
23079;DHT22;11707;50.830;4.364;2023-12-20T04:25:34;6.40;99.90
23079;DHT22;11707;50.830;4.364;2023-12-20T04:27:59;6.40;99.90
23079;DHT22;11707;50.830;4.364;2023-12-20T04:30:25;6.40;99.90
23079;DHT22;11707;50.830;4.364;2023-12-20T04:32:51;6.30;99.90
23079;DHT22;11707;50.830;4.364;2023-12-20T04:35:16;6.30;99.90
23079;DHT22;11707;50.830;4.364;2023-12-20T04:37:42;6.30;99.90
23079;DHT22;11707;50.830;4.364;2023-12-20T04:40:08;6.30;99.90
23079;DHT22;11707;50.830;4.364;2023-12-20T04:42:34;6.30;99.90
23079;DHT22;11707;50.830;4.364;2023-12-20T04:44:59;6.30;99.90
23079;DHT22;11707;50.830;4.364;2023-12-20T04:47:25;6.30;99.90
23079;DHT22;11707;50.830;4.364;2023-12-20T04:49:51;6.20;99.90
23079;DHT22;11707;50.830;4.364;2023-12-20T04:52:16;6.20;99.90
23079;DHT22;11707;50.830;4.364;2023-12-20T04:54:42;6.20;99.90
23079;DHT22;11707;50.830;4.364;2023-12-20T04:57:08;6.20;99.90
23079;DHT22;11707;50.830;4.364;2023-12-20T04:59:36;6.30;99.90
23079;DHT22;11707;50.830;4.364;2023-12-20T05:02:04;6.40;99.90
23079;DHT22;11707;50.830;4.364;2023-12-20T05:04:30;6.40;99.90
23079;DHT22;11707;50.830;4.364;2023-12-20T05:06:55;6.40;99.90
23079;DHT22;11707;50.830;4.364;2023-12-20T05:09:21;6.40;99.90
23079;DHT22;11707;50.830;4.364;2023-12-20T05:11:47;6.40;99.90
23079;DHT22;11707;50.830;4.364;2023-12-20T05:14:12;6.40;99.90
23079;DHT22;11707;50.830;4.364;2023-12-20T05:16:38;6.50;99.90
23079;DHT22;11707;50.830;4.364;2023-12-20T05:19:06;6.40;99.90
23079;DHT22;11707;50.830;4.364;2023-12-20T05:21:34;6.40;99.90
23079;DHT22;11707;50.830;4.364;2023-12-20T05:24:01;6.40;99.90
23079;DHT22;11707;50.830;4.364;2023-12-20T05:26:26;6.40;99.90
23079;DHT22;11707;50.830;4.364;2023-12-20T05:28:52;6.40;99.90
23079;DHT22;11707;50.830;4.364;2023-12-20T05:31:18;6.30;99.90
23079;DHT22;11707;50.830;4.364;2023-12-20T05:33:44;6.30;99.90
23079;DHT22;11707;50.830;4.364;2023-12-20T05:36:09;6.30;99.90
23079;DHT22;11707;50.830;4.364;2023-12-20T05:38:37;6.30;99.90
23079;DHT22;11707;50.830;4.364;2023-12-20T05:41:05;6.30;99.90
23079;DHT22;11707;50.830;4.364;2023-12-20T05:43:33;6.30;99.90
23079;DHT22;11707;50.830;4.364;2023-12-20T05:45:58;6.30;99.90
23079;DHT22;11707;50.830;4.364;2023-12-20T05:48:24;6.30;99.90
23079;DHT22;11707;50.830;4.364;2023-12-20T05:50:49;6.30;99.90
23079;DHT22;11707;50.830;4.364;2023-12-20T05:53:15;6.30;99.90
23079;DHT22;11707;50.830;4.364;2023-12-20T05:55:50;6.30;99.90
23079;DHT22;11707;50.830;4.364;2023-12-20T05:58:16;6.30;99.90
23079;DHT22;11707;50.830;4.364;2023-12-20T06:00:41;6.20;99.90
23079;DHT22;11707;50.830;4.364;2023-12-20T06:03:07;6.20;99.90
23079;DHT22;11707;50.830;4.364;2023-12-20T06:05:33;6.10;99.90
23079;DHT22;11707;50.830;4.364;2023-12-20T06:07:58;6.10;99.90
23079;DHT22;11707;50.830;4.364;2023-12-20T06:10:28;6.00;99.90
23079;DHT22;11707;50.830;4.364;2023-12-20T06:12:54;5.90;99.90
23079;DHT22;11707;50.830;4.364;2023-12-20T06:15:19;5.80;99.90
23079;DHT22;11707;50.830;4.364;2023-12-20T06:17:48;5.70;99.90
23079;DHT22;11707;50.830;4.364;2023-12-20T06:20:13;5.70;99.90
23079;DHT22;11707;50.830;4.364;2023-12-20T06:22:39;5.70;99.90
23079;DHT22;11707;50.830;4.364;2023-12-20T06:25:05;5.70;99.90
23079;DHT22;11707;50.830;4.364;2023-12-20T06:27:32;5.80;99.90
23079;DHT22;11707;50.830;4.364;2023-12-20T06:29:58;5.80;99.90
23079;DHT22;11707;50.830;4.364;2023-12-20T06:32:24;5.80;99.90
23079;DHT22;11707;50.830;4.364;2023-12-20T06:34:52;5.80;99.90
23079;DHT22;11707;50.830;4.364;2023-12-20T06:37:18;5.90;99.90
23079;DHT22;11707;50.830;4.364;2023-12-20T06:39:43;5.90;99.90
23079;DHT22;11707;50.830;4.364;2023-12-20T06:42:09;5.90;99.90
23079;DHT22;11707;50.830;4.364;2023-12-20T06:44:35;6.00;99.90
23079;DHT22;11707;50.830;4.364;2023-12-20T06:47:04;5.90;99.90
23079;DHT22;11707;50.830;4.364;2023-12-20T06:49:30;6.00;99.90
23079;DHT22;11707;50.830;4.364;2023-12-20T06:51:56;6.00;99.90
23079;DHT22;11707;50.830;4.364;2023-12-20T06:54:21;6.00;99.90
23079;DHT22;11707;50.830;4.364;2023-12-20T06:56:49;6.00;99.90
23079;DHT22;11707;50.830;4.364;2023-12-20T06:59:20;6.00;99.90
23079;DHT22;11707;50.830;4.364;2023-12-20T07:01:51;6.10;99.90
23079;DHT22;11707;50.830;4.364;2023-12-20T07:04:16;6.10;99.90
23079;DHT22;11707;50.830;4.364;2023-12-20T07:06:46;6.10;99.90
23079;DHT22;11707;50.830;4.364;2023-12-20T07:09:12;6.10;99.90
23079;DHT22;11707;50.830;4.364;2023-12-20T07:11:38;6.10;99.90
23079;DHT22;11707;50.830;4.364;2023-12-20T07:14:04;6.10;99.90
23079;DHT22;11707;50.830;4.364;2023-12-20T07:16:32;6.10;99.90
23079;DHT22;11707;50.830;4.364;2023-12-20T07:18:58;6.10;99.90
23079;DHT22;11707;50.830;4.364;2023-12-20T07:21:24;6.10;99.90
23079;DHT22;11707;50.830;4.364;2023-12-20T07:23:52;5.90;99.90
23079;DHT22;11707;50.830;4.364;2023-12-20T07:26:18;5.80;99.90
23079;DHT22;11707;50.830;4.364;2023-12-20T07:28:43;5.80;99.90
23079;DHT22;11707;50.830;4.364;2023-12-20T07:31:09;5.70;99.90
23079;DHT22;11707;50.830;4.364;2023-12-20T07:33:35;5.70;99.90
23079;DHT22;11707;50.830;4.364;2023-12-20T07:36:00;5.70;99.90
23079;DHT22;11707;50.830;4.364;2023-12-20T07:38:26;5.70;99.90
23079;DHT22;11707;50.830;4.364;2023-12-20T07:40:52;5.70;99.90
23079;DHT22;11707;50.830;4.364;2023-12-20T07:43:18;5.80;99.90
23079;DHT22;11707;50.830;4.364;2023-12-20T07:45:43;5.80;99.90
23079;DHT22;11707;50.830;4.364;2023-12-20T07:48:09;5.80;99.90
23079;DHT22;11707;50.830;4.364;2023-12-20T07:50:35;5.80;99.90
23079;DHT22;11707;50.830;4.364;2023-12-20T07:53:05;5.80;99.90
23079;DHT22;11707;50.830;4.364;2023-12-20T07:55:31;5.80;99.90
23079;DHT22;11707;50.830;4.364;2023-12-20T07:57:57;5.70;99.90
23079;DHT22;11707;50.830;4.364;2023-12-20T08:00:23;5.70;99.90
23079;DHT22;11707;50.830;4.364;2023-12-20T08:02:49;5.70;99.90
23079;DHT22;11707;50.830;4.364;2023-12-20T08:05:14;5.60;99.90
23079;DHT22;11707;50.830;4.364;2023-12-20T08:07:40;5.60;99.90
23079;DHT22;11707;50.830;4.364;2023-12-20T08:10:06;5.60;99.90
23079;DHT22;11707;50.830;4.364;2023-12-20T08:12:32;5.60;99.90
23079;DHT22;11707;50.830;4.364;2023-12-20T08:14:59;5.60;99.90
23079;DHT22;11707;50.830;4.364;2023-12-20T08:17:27;5.60;99.90
23079;DHT22;11707;50.830;4.364;2023-12-20T08:19:55;5.60;99.90
23079;DHT22;11707;50.830;4.364;2023-12-20T08:22:21;5.60;99.90
23079;DHT22;11707;50.830;4.364;2023-12-20T08:24:47;5.60;99.90
23079;DHT22;11707;50.830;4.364;2023-12-20T08:27:13;5.60;99.90
23079;DHT22;11707;50.830;4.364;2023-12-20T08:29:39;5.60;99.90
23079;DHT22;11707;50.830;4.364;2023-12-20T08:32:07;5.60;99.90
23079;DHT22;11707;50.830;4.364;2023-12-20T08:34:35;5.60;99.90
23079;DHT22;11707;50.830;4.364;2023-12-20T08:37:01;5.60;99.90
23079;DHT22;11707;50.830;4.364;2023-12-20T08:39:26;5.60;99.90
23079;DHT22;11707;50.830;4.364;2023-12-20T08:41:53;5.60;99.90
23079;DHT22;11707;50.830;4.364;2023-12-20T08:44:18;5.50;99.90
23079;DHT22;11707;50.830;4.364;2023-12-20T08:46:44;5.60;99.90
23079;DHT22;11707;50.830;4.364;2023-12-20T08:49:10;5.50;99.90
23079;DHT22;11707;50.830;4.364;2023-12-20T08:51:36;5.50;99.90
23079;DHT22;11707;50.830;4.364;2023-12-20T08:54:04;5.60;99.90
23079;DHT22;11707;50.830;4.364;2023-12-20T08:56:33;5.60;99.90
23079;DHT22;11707;50.830;4.364;2023-12-20T08:59:01;5.70;99.90
23079;DHT22;11707;50.830;4.364;2023-12-20T09:01:26;5.70;99.90
23079;DHT22;11707;50.830;4.364;2023-12-20T09:03:52;5.80;99.90
23079;DHT22;11707;50.830;4.364;2023-12-20T09:06:18;5.90;99.90
23079;DHT22;11707;50.830;4.364;2023-12-20T09:08:44;5.90;99.90
23079;DHT22;11707;50.830;4.364;2023-12-20T09:11:10;5.90;99.90
23079;DHT22;11707;50.830;4.364;2023-12-20T09:13:36;6.00;99.90
23079;DHT22;11707;50.830;4.364;2023-12-20T09:16:02;6.00;99.90
23079;DHT22;11707;50.830;4.364;2023-12-20T09:18:28;6.00;99.90
23079;DHT22;11707;50.830;4.364;2023-12-20T09:20:54;6.00;99.90
23079;DHT22;11707;50.830;4.364;2023-12-20T09:23:20;6.10;99.90
23079;DHT22;11707;50.830;4.364;2023-12-20T09:25:46;6.10;99.90
23079;DHT22;11707;50.830;4.364;2023-12-20T09:28:12;6.10;99.90
23079;DHT22;11707;50.830;4.364;2023-12-20T09:30:40;6.10;99.90
23079;DHT22;11707;50.830;4.364;2023-12-20T09:33:06;6.10;99.90
23079;DHT22;11707;50.830;4.364;2023-12-20T09:35:32;6.20;99.90
23079;DHT22;11707;50.830;4.364;2023-12-20T09:37:58;6.20;99.90
23079;DHT22;11707;50.830;4.364;2023-12-20T09:40:26;6.30;99.90
23079;DHT22;11707;50.830;4.364;2023-12-20T09:43:04;6.40;99.90
23079;DHT22;11707;50.830;4.364;2023-12-20T09:45:34;6.50;99.90
23079;DHT22;11707;50.830;4.364;2023-12-20T09:48:00;6.60;99.90
23079;DHT22;11707;50.830;4.364;2023-12-20T09:50:33;6.60;99.90
23079;DHT22;11707;50.830;4.364;2023-12-20T09:53:01;6.60;99.90
23079;DHT22;11707;50.830;4.364;2023-12-20T09:55:29;6.60;99.90
23079;DHT22;11707;50.830;4.364;2023-12-20T09:57:56;6.60;99.90
23079;DHT22;11707;50.830;4.364;2023-12-20T10:00:24;6.60;99.90
23079;DHT22;11707;50.830;4.364;2023-12-20T10:03:00;6.70;99.90
23079;DHT22;11707;50.830;4.364;2023-12-20T10:05:30;6.70;99.90
23079;DHT22;11707;50.830;4.364;2023-12-20T10:07:57;6.70;99.90
23079;DHT22;11707;50.830;4.364;2023-12-20T10:10:23;6.60;99.90
23079;DHT22;11707;50.830;4.364;2023-12-20T10:13:06;6.60;99.90
23079;DHT22;11707;50.830;4.364;2023-12-20T10:15:33;6.60;99.90
23079;DHT22;11707;50.830;4.364;2023-12-20T10:18:01;6.60;99.90
23079;DHT22;11707;50.830;4.364;2023-12-20T10:20:28;6.60;99.90
23079;DHT22;11707;50.830;4.364;2023-12-20T10:22:57;6.70;99.90
23079;DHT22;11707;50.830;4.364;2023-12-20T10:25:24;6.80;99.90
23079;DHT22;11707;50.830;4.364;2023-12-20T10:27:51;6.90;99.90
23079;DHT22;11707;50.830;4.364;2023-12-20T10:30:33;7.00;99.90
23079;DHT22;11707;50.830;4.364;2023-12-20T10:32:59;7.00;99.90
23079;DHT22;11707;50.830;4.364;2023-12-20T10:35:27;7.00;99.90
23079;DHT22;11707;50.830;4.364;2023-12-20T10:37:55;7.10;99.90
23079;DHT22;11707;50.830;4.364;2023-12-20T10:40:22;7.10;99.90
23079;DHT22;11707;50.830;4.364;2023-12-20T10:42:50;7.10;99.90
23079;DHT22;11707;50.830;4.364;2023-12-20T10:45:16;7.10;99.90
23079;DHT22;11707;50.830;4.364;2023-12-20T10:47:46;7.20;99.90
23079;DHT22;11707;50.830;4.364;2023-12-20T10:50:14;7.30;99.90
23079;DHT22;11707;50.830;4.364;2023-12-20T10:52:40;7.30;99.90
23079;DHT22;11707;50.830;4.364;2023-12-20T10:55:07;7.40;99.90
23079;DHT22;11707;50.830;4.364;2023-12-20T10:57:33;7.40;99.90
23079;DHT22;11707;50.830;4.364;2023-12-20T11:00:03;7.50;99.90
23079;DHT22;11707;50.830;4.364;2023-12-20T11:02:32;7.50;99.90
23079;DHT22;11707;50.830;4.364;2023-12-20T11:05:01;7.50;99.90
23079;DHT22;11707;50.830;4.364;2023-12-20T11:07:50;7.60;99.90
23079;DHT22;11707;50.830;4.364;2023-12-20T11:10:43;7.60;99.90
23079;DHT22;11707;50.830;4.364;2023-12-20T11:13:26;7.70;99.90
23079;DHT22;11707;50.830;4.364;2023-12-20T11:15:54;7.70;99.90
23079;DHT22;11707;50.830;4.364;2023-12-20T11:18:28;7.70;99.90
23079;DHT22;11707;50.830;4.364;2023-12-20T11:20:54;7.70;99.90
23079;DHT22;11707;50.830;4.364;2023-12-20T11:23:20;7.70;99.90
23079;DHT22;11707;50.830;4.364;2023-12-20T11:25:57;7.70;99.90
23079;DHT22;11707;50.830;4.364;2023-12-20T11:28:26;7.60;99.90
23079;DHT22;11707;50.830;4.364;2023-12-20T11:30:53;7.60;99.90
23079;DHT22;11707;50.830;4.364;2023-12-20T11:33:26;7.50;99.90
23079;DHT22;11707;50.830;4.364;2023-12-20T11:35:58;7.50;99.90
23079;DHT22;11707;50.830;4.364;2023-12-20T11:38:25;7.50;99.90
23079;DHT22;11707;50.830;4.364;2023-12-20T11:40:53;7.50;99.90
23079;DHT22;11707;50.830;4.364;2023-12-20T11:43:32;7.50;99.90
23079;DHT22;11707;50.830;4.364;2023-12-20T11:46:07;7.40;99.90
23079;DHT22;11707;50.830;4.364;2023-12-20T11:48:39;7.50;99.90
23079;DHT22;11707;50.830;4.364;2023-12-20T11:51:12;7.50;99.90
23079;DHT22;11707;50.830;4.364;2023-12-20T11:53:41;7.50;99.90
23079;DHT22;11707;50.830;4.364;2023-12-20T11:56:12;7.50;99.90
23079;DHT22;11707;50.830;4.364;2023-12-20T11:58:40;7.50;99.90
23079;DHT22;11707;50.830;4.364;2023-12-20T12:01:07;7.60;99.90
23079;DHT22;11707;50.830;4.364;2023-12-20T12:03:33;7.60;99.90
23079;DHT22;11707;50.830;4.364;2023-12-20T12:05:59;7.70;99.90
23079;DHT22;11707;50.830;4.364;2023-12-20T12:08:26;7.70;99.90
23079;DHT22;11707;50.830;4.364;2023-12-20T12:10:52;7.80;99.90
23079;DHT22;11707;50.830;4.364;2023-12-20T12:13:17;7.90;99.90
23079;DHT22;11707;50.830;4.364;2023-12-20T12:15:43;8.00;99.90
23079;DHT22;11707;50.830;4.364;2023-12-20T12:18:10;8.10;99.90
23079;DHT22;11707;50.830;4.364;2023-12-20T12:20:36;8.10;99.90
23079;DHT22;11707;50.830;4.364;2023-12-20T12:25:30;8.10;99.90
23079;DHT22;11707;50.830;4.364;2023-12-20T12:27:59;8.20;99.90
23079;DHT22;11707;50.830;4.364;2023-12-20T12:30:25;8.20;99.90
23079;DHT22;11707;50.830;4.364;2023-12-20T12:32:55;8.20;99.90
23079;DHT22;11707;50.830;4.364;2023-12-20T12:35:21;8.20;99.90
23079;DHT22;11707;50.830;4.364;2023-12-20T12:37:47;8.20;99.90
23079;DHT22;11707;50.830;4.364;2023-12-20T12:40:14;8.20;99.90
23079;DHT22;11707;50.830;4.364;2023-12-20T12:42:41;8.20;99.90
23079;DHT22;11707;50.830;4.364;2023-12-20T12:45:08;8.20;99.90
23079;DHT22;11707;50.830;4.364;2023-12-20T12:47:34;8.20;99.90
23079;DHT22;11707;50.830;4.364;2023-12-20T12:50:00;8.10;99.90
23079;DHT22;11707;50.830;4.364;2023-12-20T12:52:26;8.10;99.90
23079;DHT22;11707;50.830;4.364;2023-12-20T12:54:55;8.10;99.90
23079;DHT22;11707;50.830;4.364;2023-12-20T12:57:20;8.10;99.90
23079;DHT22;11707;50.830;4.364;2023-12-20T12:59:46;8.10;99.90
23079;DHT22;11707;50.830;4.364;2023-12-20T13:02:15;8.10;99.90
23079;DHT22;11707;50.830;4.364;2023-12-20T13:04:41;8.20;99.90
23079;DHT22;11707;50.830;4.364;2023-12-20T13:07:08;8.30;99.90
23079;DHT22;11707;50.830;4.364;2023-12-20T13:09:37;8.30;99.90
23079;DHT22;11707;50.830;4.364;2023-12-20T13:12:06;8.30;99.90
23079;DHT22;11707;50.830;4.364;2023-12-20T13:14:34;8.30;99.90
23079;DHT22;11707;50.830;4.364;2023-12-20T13:17:01;8.30;99.90
23079;DHT22;11707;50.830;4.364;2023-12-20T13:19:26;8.20;99.90
23079;DHT22;11707;50.830;4.364;2023-12-20T13:21:53;8.20;99.90
23079;DHT22;11707;50.830;4.364;2023-12-20T13:24:19;8.10;99.90
23079;DHT22;11707;50.830;4.364;2023-12-20T13:26:44;8.20;99.90
23079;DHT22;11707;50.830;4.364;2023-12-20T13:29:13;8.30;99.90
23079;DHT22;11707;50.830;4.364;2023-12-20T13:31:39;8.30;99.90
23079;DHT22;11707;50.830;4.364;2023-12-20T13:34:06;8.40;99.90
23079;DHT22;11707;50.830;4.364;2023-12-20T13:36:31;8.50;99.90
23079;DHT22;11707;50.830;4.364;2023-12-20T13:38:57;8.50;99.90
23079;DHT22;11707;50.830;4.364;2023-12-20T13:41:25;8.60;99.90
23079;DHT22;11707;50.830;4.364;2023-12-20T13:43:53;8.70;99.90
23079;DHT22;11707;50.830;4.364;2023-12-20T13:46:19;8.70;99.90
23079;DHT22;11707;50.830;4.364;2023-12-20T13:48:45;8.70;99.90
23079;DHT22;11707;50.830;4.364;2023-12-20T13:51:13;8.70;99.90
23079;DHT22;11707;50.830;4.364;2023-12-20T13:53:39;8.70;99.90
23079;DHT22;11707;50.830;4.364;2023-12-20T13:56:05;8.70;99.90
23079;DHT22;11707;50.830;4.364;2023-12-20T13:58:30;8.70;99.90
23079;DHT22;11707;50.830;4.364;2023-12-20T14:00:56;8.80;99.90
23079;DHT22;11707;50.830;4.364;2023-12-20T14:03:22;8.80;99.90
23079;DHT22;11707;50.830;4.364;2023-12-20T14:05:50;8.80;99.90
23079;DHT22;11707;50.830;4.364;2023-12-20T14:08:15;8.80;99.90
23079;DHT22;11707;50.830;4.364;2023-12-20T14:10:43;8.90;99.90
23079;DHT22;11707;50.830;4.364;2023-12-20T14:13:09;8.90;99.90
23079;DHT22;11707;50.830;4.364;2023-12-20T14:15:35;9.00;99.90
23079;DHT22;11707;50.830;4.364;2023-12-20T14:18:05;9.00;99.90
23079;DHT22;11707;50.830;4.364;2023-12-20T14:20:32;9.00;99.90
23079;DHT22;11707;50.830;4.364;2023-12-20T14:23:00;8.90;99.90
23079;DHT22;11707;50.830;4.364;2023-12-20T14:25:26;9.00;99.90
23079;DHT22;11707;50.830;4.364;2023-12-20T14:27:56;9.00;99.90
23079;DHT22;11707;50.830;4.364;2023-12-20T14:30:22;9.00;99.90
23079;DHT22;11707;50.830;4.364;2023-12-20T14:32:48;9.00;99.90
23079;DHT22;11707;50.830;4.364;2023-12-20T14:35:14;9.10;99.90
23079;DHT22;11707;50.830;4.364;2023-12-20T14:37:39;9.10;99.90
23079;DHT22;11707;50.830;4.364;2023-12-20T14:40:09;9.10;99.90
23079;DHT22;11707;50.830;4.364;2023-12-20T14:42:40;9.10;99.90
23079;DHT22;11707;50.830;4.364;2023-12-20T14:45:07;9.10;99.90
23079;DHT22;11707;50.830;4.364;2023-12-20T14:47:32;9.20;99.90
23079;DHT22;11707;50.830;4.364;2023-12-20T14:50:03;9.20;99.90
23079;DHT22;11707;50.830;4.364;2023-12-20T14:52:29;9.20;99.90
23079;DHT22;11707;50.830;4.364;2023-12-20T14:54:55;9.20;99.90
23079;DHT22;11707;50.830;4.364;2023-12-20T14:57:23;9.20;99.90
23079;DHT22;11707;50.830;4.364;2023-12-20T14:59:51;9.20;99.90
23079;DHT22;11707;50.830;4.364;2023-12-20T15:02:17;9.30;99.90
23079;DHT22;11707;50.830;4.364;2023-12-20T15:04:43;9.30;99.90
23079;DHT22;11707;50.830;4.364;2023-12-20T15:07:08;9.30;99.90
23079;DHT22;11707;50.830;4.364;2023-12-20T15:09:34;9.30;99.90
23079;DHT22;11707;50.830;4.364;2023-12-20T15:12:00;9.30;99.90
23079;DHT22;11707;50.830;4.364;2023-12-20T15:14:26;9.30;99.90
23079;DHT22;11707;50.830;4.364;2023-12-20T15:16:54;9.30;99.90
23079;DHT22;11707;50.830;4.364;2023-12-20T15:19:23;9.30;99.90
23079;DHT22;11707;50.830;4.364;2023-12-20T15:21:49;9.30;99.90
23079;DHT22;11707;50.830;4.364;2023-12-20T15:24:17;9.30;99.90
23079;DHT22;11707;50.830;4.364;2023-12-20T15:26:46;9.20;99.90
23079;DHT22;11707;50.830;4.364;2023-12-20T15:29:14;9.30;99.90
23079;DHT22;11707;50.830;4.364;2023-12-20T15:31:45;9.20;99.90
23079;DHT22;11707;50.830;4.364;2023-12-20T15:34:14;9.20;99.90
23079;DHT22;11707;50.830;4.364;2023-12-20T15:36:42;9.30;99.90
23079;DHT22;11707;50.830;4.364;2023-12-20T15:39:08;9.20;99.90
23079;DHT22;11707;50.830;4.364;2023-12-20T15:41:37;9.20;99.90
23079;DHT22;11707;50.830;4.364;2023-12-20T15:44:02;9.20;99.90
23079;DHT22;11707;50.830;4.364;2023-12-20T15:46:28;9.20;99.90